createdAt,value
2022-12-18T00:00:48.396Z,41.20
2022-12-18T00:03:36.435Z,46.50
2022-12-18T00:06:03.145Z,44.10
2022-12-18T00:08:29.538Z,47.30
2022-12-18T00:10:55.929Z,42.10
2022-12-18T00:13:27.616Z,42.20
2022-12-18T00:15:54.488Z,41.40
2022-12-18T00:18:23.136Z,37.20
2022-12-18T00:20:49.453Z,43.40
2022-12-18T00:23:15.856Z,40.10
2022-12-18T00:25:42.259Z,43.10
2022-12-18T00:28:08.740Z,39.60
2022-12-18T00:30:35.124Z,39.20
2022-12-18T00:33:01.476Z,38.10
2022-12-18T00:35:27.935Z,37.30
2022-12-18T00:37:54.345Z,42.70
2022-12-18T00:40:20.683Z,32.30
2022-12-18T00:42:56.265Z,36.50
2022-12-18T00:45:31.142Z,39.40
2022-12-18T00:47:57.724Z,36.00
2022-12-18T00:50:25.166Z,36.20
2022-12-18T00:52:52.389Z,32.20
2022-12-18T00:55:19.123Z,34.90
2022-12-18T00:57:46.998Z,40.80
2022-12-18T01:00:14.885Z,36.40
2022-12-18T01:02:41.806Z,35.20
2022-12-18T01:05:10.362Z,39.60
2022-12-18T01:07:37.304Z,36.50
2022-12-18T01:10:05.447Z,34.80
2022-12-18T01:12:32.083Z,37.10
2022-12-18T01:14:58.811Z,37.10
2022-12-18T01:17:25.573Z,40.30
2022-12-18T01:19:53.577Z,31.40
2022-12-18T01:22:20.006Z,37.80
2022-12-18T01:24:46.615Z,35.50
2022-12-18T01:27:13.016Z,30.70
2022-12-18T01:29:39.944Z,29.90
2022-12-18T01:32:06.388Z,35.80
2022-12-18T01:34:32.908Z,26.40
2022-12-18T01:36:59.232Z,27.50
2022-12-18T01:39:26.201Z,30.80
2022-12-18T01:42:01.728Z,30.10
2022-12-18T01:44:53.226Z,26.50
2022-12-18T01:47:39.613Z,29.90
2022-12-18T01:50:15.398Z,28.80
2022-12-18T01:52:44.480Z,26.70
2022-12-18T01:55:11.738Z,34.00
2022-12-18T01:57:38.711Z,28.90
2022-12-18T02:00:12.985Z,25.00
2022-12-18T02:02:41.372Z,26.90
2022-12-18T02:05:08.561Z,25.60
2022-12-18T02:07:35.047Z,25.00
2022-12-18T02:10:14.025Z,22.20
2022-12-18T02:12:43.067Z,24.20
2022-12-18T02:15:26.026Z,23.60
2022-12-18T02:17:59.286Z,26.40
2022-12-18T02:20:35.696Z,25.10
2022-12-18T02:23:14.416Z,26.20
2022-12-18T02:26:06.399Z,31.00
2022-12-18T02:28:37.147Z,21.90
2022-12-18T02:31:08.283Z,31.70
2022-12-18T02:33:36.508Z,28.10
2022-12-18T02:36:03.749Z,24.10
2022-12-18T02:38:31.881Z,23.50
2022-12-18T02:41:02.844Z,22.70
2022-12-18T02:43:30.103Z,20.40
2022-12-18T02:45:59.850Z,24.70
2022-12-18T02:48:33.768Z,21.80
2022-12-18T02:51:09.349Z,28.90
2022-12-18T02:54:15.467Z,24.70
2022-12-18T02:56:48.625Z,21.50
2022-12-18T02:59:32.371Z,27.10
2022-12-18T03:01:59.700Z,27.80
2022-12-18T03:04:40.495Z,28.10
2022-12-18T03:07:12.978Z,23.90
2022-12-18T03:12:25.351Z,26.80
2022-12-18T03:15:05.345Z,22.90
2022-12-18T03:17:34.114Z,24.70
2022-12-18T03:20:06.759Z,29.10
2022-12-18T03:22:35.597Z,27.40
2022-12-18T03:25:06.750Z,25.40
2022-12-18T03:27:37.662Z,22.60
2022-12-18T03:30:09.280Z,24.60
2022-12-18T03:32:47.748Z,20.20
2022-12-18T03:35:22.332Z,27.40
2022-12-18T03:37:49.314Z,19.50
2022-12-18T03:40:15.881Z,26.90
2022-12-18T03:42:57.907Z,25.60
2022-12-18T03:45:35.131Z,22.70
2022-12-18T03:48:03.947Z,23.20
2022-12-18T03:51:05.296Z,26.10
2022-12-18T03:53:47.219Z,30.20
2022-12-18T03:56:16.380Z,25.00
2022-12-18T03:58:43.945Z,22.20
2022-12-18T04:01:20.827Z,25.50
2022-12-18T04:03:49.471Z,25.80
2022-12-18T04:06:17.674Z,24.30
2022-12-18T04:08:45.386Z,26.00
2022-12-18T04:11:13.492Z,24.90
2022-12-18T04:13:43.082Z,26.00
2022-12-18T04:16:15.399Z,28.80
2022-12-18T04:18:43.154Z,31.70
2022-12-18T04:21:10.640Z,26.50
2022-12-18T04:23:37.825Z,27.70
2022-12-18T04:26:04.751Z,31.20
2022-12-18T04:28:42.273Z,28.40
2022-12-18T04:31:09.247Z,25.20
2022-12-18T04:33:36.014Z,29.80
2022-12-18T04:36:03.776Z,26.20
2022-12-18T04:38:30.405Z,30.30
2022-12-18T04:43:30.064Z,26.30
2022-12-18T04:46:07.297Z,24.30
2022-12-18T04:48:33.941Z,27.00
2022-12-18T04:51:02.962Z,32.30
2022-12-18T04:53:29.319Z,30.60
2022-12-18T04:56:13.500Z,29.90
2022-12-18T04:58:41.661Z,29.40
2022-12-18T05:01:09.050Z,29.60
2022-12-18T05:03:36.628Z,27.50
2022-12-18T05:06:04.225Z,33.40
2022-12-18T05:08:30.743Z,28.00
2022-12-18T05:11:06.677Z,30.20
2022-12-18T05:13:34.222Z,30.00
2022-12-18T05:16:00.929Z,30.50
2022-12-18T05:18:27.515Z,28.10
2022-12-18T05:20:54.754Z,29.70
2022-12-18T05:23:23.146Z,27.10
2022-12-18T05:26:15.491Z,28.20
2022-12-18T05:31:08.414Z,26.10
2022-12-18T05:33:35.661Z,23.40
2022-12-18T05:36:04.572Z,28.50
2022-12-18T05:38:32.579Z,27.30
2022-12-18T05:40:59.700Z,22.40
2022-12-18T05:43:26.920Z,21.90
2022-12-18T05:45:54.371Z,23.90
2022-12-18T05:48:21.291Z,24.20
2022-12-18T05:50:49.021Z,23.90
2022-12-18T05:53:17.485Z,26.00
2022-12-18T05:55:44.606Z,28.80
2022-12-18T05:58:12.917Z,25.70
2022-12-18T06:00:42.833Z,24.80
2022-12-18T06:03:11.155Z,26.70
2022-12-18T06:05:43.699Z,24.50
2022-12-18T06:08:10.903Z,24.20
2022-12-18T06:10:37.882Z,25.70
2022-12-18T06:13:04.989Z,25.10
2022-12-18T06:15:31.646Z,29.80
2022-12-18T06:17:58.054Z,24.60
2022-12-18T06:20:26.916Z,23.60
2022-12-18T06:22:56.961Z,24.70
2022-12-18T06:25:23.465Z,22.50
2022-12-18T06:27:49.829Z,24.80
2022-12-18T06:30:16.253Z,28.00
2022-12-18T06:32:43.029Z,26.70
2022-12-18T06:35:09.452Z,26.30
2022-12-18T06:37:35.785Z,22.70
2022-12-18T06:40:02.381Z,24.40
2022-12-18T06:42:29.475Z,23.10
2022-12-18T06:44:55.930Z,28.00
2022-12-18T06:47:22.320Z,23.40
2022-12-18T06:49:48.685Z,24.80
2022-12-18T06:52:18.014Z,25.80
2022-12-18T06:54:44.719Z,24.10
2022-12-18T06:57:11.486Z,24.30
2022-12-18T06:59:37.829Z,26.10
2022-12-18T07:02:05.009Z,26.50
2022-12-18T07:04:32.308Z,29.60
2022-12-18T07:06:58.703Z,29.40
2022-12-18T07:09:25.173Z,28.30
2022-12-18T07:11:52.535Z,30.60
2022-12-18T07:14:18.974Z,30.90
2022-12-18T07:16:45.484Z,31.30
2022-12-18T07:19:11.860Z,30.60
2022-12-18T07:21:38.411Z,36.60
2022-12-18T07:24:05.839Z,28.70
2022-12-18T07:26:32.837Z,25.70
2022-12-18T07:28:59.189Z,26.20
2022-12-18T07:31:26.000Z,28.00
2022-12-18T07:33:52.635Z,27.70
2022-12-18T07:36:19.674Z,30.90
2022-12-18T07:38:49.951Z,27.50
2022-12-18T07:41:16.918Z,31.70
2022-12-18T07:43:43.840Z,32.90
2022-12-18T07:46:13.975Z,34.80
2022-12-18T07:48:41.635Z,39.00
2022-12-18T07:51:08.661Z,36.40
2022-12-18T07:53:36.309Z,40.70
2022-12-18T07:56:26.381Z,33.80
2022-12-18T07:58:52.810Z,45.60
2022-12-18T08:01:19.274Z,41.70
2022-12-18T08:03:47.901Z,48.20
2022-12-18T08:06:14.630Z,38.00
2022-12-18T08:08:42.452Z,44.40
2022-12-18T08:11:08.870Z,43.80
2022-12-18T08:13:35.313Z,46.40
2022-12-18T08:16:04.825Z,49.60
2022-12-18T08:18:35.974Z,40.50
2022-12-18T08:21:09.979Z,47.60
2022-12-18T08:23:42.082Z,41.10
2022-12-18T08:26:13.363Z,39.40
2022-12-18T08:28:40.458Z,41.50
2022-12-18T08:31:07.999Z,36.20
2022-12-18T08:33:35.213Z,40.90
2022-12-18T08:36:02.243Z,35.60
2022-12-18T08:38:28.936Z,32.60
2022-12-18T08:41:15.074Z,32.70
2022-12-18T08:44:00.938Z,34.90
2022-12-18T08:46:36.499Z,29.90
2022-12-18T08:49:03.751Z,32.80
2022-12-18T08:51:30.603Z,33.50
2022-12-18T08:53:57.325Z,32.40
2022-12-18T08:56:23.699Z,35.50
2022-12-18T08:58:54.432Z,34.00
2022-12-18T09:01:21.489Z,33.30
2022-12-18T09:03:49.533Z,34.10
2022-12-18T09:06:17.609Z,32.00
2022-12-18T09:08:45.080Z,32.00
2022-12-18T09:11:20.152Z,34.00
2022-12-18T09:13:46.633Z,38.40
2022-12-18T09:16:13.201Z,33.10
2022-12-18T09:18:39.887Z,35.70
2022-12-18T09:21:11.246Z,30.70
2022-12-18T09:23:37.695Z,33.00
2022-12-18T09:26:04.666Z,34.30
2022-12-18T09:28:31.022Z,35.10
2022-12-18T09:30:57.821Z,35.60
2022-12-18T09:33:24.433Z,36.10
2022-12-18T09:35:50.908Z,33.50
2022-12-18T09:38:19.758Z,38.00
2022-12-18T09:40:54.601Z,36.70
2022-12-18T09:43:30.832Z,29.60
2022-12-18T09:46:27.900Z,32.40
2022-12-18T09:48:57.796Z,31.10
2022-12-18T09:51:35.646Z,32.00
2022-12-18T09:54:05.900Z,35.20
2022-12-18T09:56:36.173Z,33.90
2022-12-18T09:59:04.375Z,31.20
2022-12-18T10:01:40.186Z,39.60
2022-12-18T10:04:09.961Z,33.20
2022-12-18T10:06:48.967Z,43.60
2022-12-18T10:09:29.169Z,34.00
2022-12-18T10:11:56.138Z,39.20
2022-12-18T10:14:43.724Z,36.40
2022-12-18T10:18:08.971Z,34.00
2022-12-18T10:20:58.638Z,38.20
2022-12-18T10:23:30.429Z,39.40
2022-12-18T10:26:05.390Z,40.30
2022-12-18T10:28:35.254Z,33.80
2022-12-18T10:31:01.879Z,34.90
2022-12-18T10:33:30.461Z,41.20
2022-12-18T10:35:57.720Z,40.60
2022-12-18T10:38:30.244Z,40.70
2022-12-18T10:41:01.560Z,42.20
2022-12-18T10:43:28.000Z,38.80
2022-12-18T10:46:08.357Z,33.50
2022-12-18T10:48:57.358Z,40.80
2022-12-18T10:51:30.298Z,37.80
2022-12-18T10:54:00.045Z,47.40
2022-12-18T10:56:28.744Z,39.30
2022-12-18T10:59:06.333Z,43.60
2022-12-18T11:01:56.297Z,45.50
2022-12-18T11:04:25.413Z,35.30
2022-12-18T11:07:07.571Z,37.30
2022-12-18T11:09:36.830Z,39.00
2022-12-18T11:12:20.468Z,35.40
2022-12-18T11:14:51.973Z,38.90
2022-12-18T11:17:25.917Z,42.80
2022-12-18T11:19:57.526Z,39.40
2022-12-18T11:22:27.894Z,39.20
2022-12-18T11:25:32.598Z,38.80
2022-12-18T11:27:56.204Z,41.20
2022-12-18T11:30:28.682Z,40.90
2022-12-18T11:33:09.964Z,41.50
2022-12-18T11:35:46.165Z,43.20
2022-12-18T11:38:27.620Z,40.50
2022-12-18T11:41:50.455Z,40.80
2022-12-18T11:44:43.366Z,40.10
2022-12-18T11:47:31.709Z,48.70
2022-12-18T11:50:01.645Z,43.00
2022-12-18T11:52:37.572Z,41.80
2022-12-18T11:55:23.599Z,38.70
2022-12-18T11:58:27.872Z,41.20
2022-12-18T12:01:06.443Z,44.80
2022-12-18T12:03:41.104Z,44.30
2022-12-18T12:06:24.926Z,41.30
2022-12-18T12:08:54.814Z,50.90
2022-12-18T12:11:33.348Z,45.70
2022-12-18T12:14:24.896Z,42.20
2022-12-18T12:17:23.825Z,43.70
2022-12-18T12:20:13.506Z,44.80
2022-12-18T12:22:50.287Z,44.00
2022-12-18T12:25:50.290Z,43.40
2022-12-18T12:28:49.001Z,45.70
2022-12-18T12:31:21.469Z,43.10
2022-12-18T12:34:01.893Z,49.10
2022-12-18T12:36:50.284Z,48.20
2022-12-18T12:39:20.957Z,43.00
2022-12-18T12:42:06.238Z,45.30
2022-12-18T12:44:38.892Z,42.70
2022-12-18T12:47:17.265Z,41.20
2022-12-18T12:49:48.071Z,35.20
2022-12-18T12:52:18.537Z,36.10
2022-12-18T12:54:45.898Z,36.70
2022-12-18T12:57:18.669Z,38.70
2022-12-18T13:00:06.387Z,39.30
2022-12-18T13:02:45.661Z,33.60
2022-12-18T13:05:24.105Z,38.60
2022-12-18T13:07:55.151Z,33.20
2022-12-18T13:10:31.549Z,38.80
2022-12-18T13:13:13.364Z,35.10
2022-12-18T13:18:09.675Z,35.60
2022-12-18T13:20:40.566Z,39.80
2022-12-18T13:23:25.061Z,43.50
2022-12-18T13:25:59.761Z,42.40
2022-12-18T13:28:45.695Z,48.40
2022-12-18T13:31:14.071Z,40.80
2022-12-18T13:34:24.724Z,42.60
2022-12-18T13:36:33.983Z,48.80
2022-12-18T13:39:34.909Z,42.40
2022-12-18T13:42:05.283Z,47.60
2022-12-18T13:44:38.544Z,47.80
2022-12-18T13:47:33.128Z,47.40
2022-12-18T13:50:00.807Z,45.30
2022-12-18T13:52:36.043Z,46.80
2022-12-18T13:55:07.607Z,51.30
2022-12-18T13:57:38.918Z,50.80
2022-12-18T14:00:20.856Z,47.50
2022-12-18T14:02:47.482Z,57.10
2022-12-18T14:05:34.727Z,49.70
2022-12-18T14:08:05.973Z,49.50
2022-12-18T14:10:47.751Z,54.30
2022-12-18T14:13:42.179Z,45.40
2022-12-18T14:16:14.389Z,55.50
2022-12-18T14:18:45.713Z,49.60
2022-12-18T14:21:38.308Z,49.80
2022-12-18T14:24:09.146Z,52.80
2022-12-18T14:26:35.540Z,44.80
2022-12-18T14:29:19.258Z,53.30
2022-12-18T14:31:45.982Z,53.30
2022-12-18T14:34:19.713Z,55.70
2022-12-18T14:36:56.617Z,50.50
2022-12-18T14:39:24.204Z,47.20
2022-12-18T14:41:52.543Z,56.10
2022-12-18T14:44:19.000Z,49.50
2022-12-18T14:46:46.605Z,55.40
2022-12-18T14:49:26.829Z,61.40
2022-12-18T14:51:56.074Z,58.30
2022-12-18T14:54:23.872Z,51.80
2022-12-18T14:57:26.712Z,55.80
2022-12-18T14:59:53.091Z,52.90
2022-12-18T15:02:27.908Z,58.40
2022-12-18T15:05:13.339Z,59.10
2022-12-18T15:07:53.557Z,55.40
2022-12-18T15:10:21.763Z,58.20
2022-12-18T15:13:01.445Z,53.40
2022-12-18T15:15:34.383Z,52.40
2022-12-18T15:18:04.308Z,59.70
2022-12-18T15:20:31.952Z,55.70
2022-12-18T15:22:58.394Z,42.20
2022-12-18T15:25:39.940Z,50.00
2022-12-18T15:28:34.120Z,57.50
2022-12-18T15:31:10.071Z,60.90
2022-12-18T15:33:40.108Z,58.10
2022-12-18T15:36:12.160Z,62.00
2022-12-18T15:38:38.680Z,56.30
2022-12-18T15:41:11.578Z,53.20
2022-12-18T15:43:41.171Z,56.80
2022-12-18T15:46:16.036Z,56.20
2022-12-18T15:48:44.752Z,54.50
2022-12-18T15:51:17.848Z,66.70
2022-12-18T15:53:45.424Z,52.20
2022-12-18T15:56:32.682Z,59.50
2022-12-18T15:59:01.057Z,64.50
2022-12-18T16:01:29.934Z,63.80
2022-12-18T16:03:56.931Z,56.10
2022-12-18T16:06:23.452Z,64.80
2022-12-18T16:08:50.105Z,65.30
2022-12-18T16:11:38.227Z,49.50
2022-12-18T16:14:28.422Z,66.70
2022-12-18T16:17:05.911Z,55.10
2022-12-18T16:19:32.261Z,63.90
2022-12-18T16:21:58.930Z,56.80
2022-12-18T16:24:28.620Z,59.90
2022-12-18T16:26:57.109Z,58.40
2022-12-18T16:29:27.155Z,45.80
2022-12-18T16:31:57.327Z,61.10
2022-12-18T16:34:29.999Z,58.80
2022-12-18T16:37:03.323Z,54.40
2022-12-18T16:39:34.270Z,58.00
2022-12-18T16:42:12.828Z,58.70
2022-12-18T16:44:39.145Z,53.00
2022-12-18T16:47:05.460Z,57.30
2022-12-18T16:49:33.013Z,55.40
2022-12-18T16:52:03.573Z,58.20
2022-12-18T16:54:30.078Z,58.50
2022-12-18T16:56:57.078Z,58.20
2022-12-18T16:59:23.471Z,54.90
2022-12-18T17:01:50.457Z,62.60
2022-12-18T17:04:17.814Z,64.70
2022-12-18T17:06:51.015Z,64.40
2022-12-18T17:09:22.497Z,64.10
2022-12-18T17:11:48.891Z,67.40
2022-12-18T17:14:17.805Z,66.90
2022-12-18T17:16:45.877Z,59.00
2022-12-18T17:19:17.142Z,62.70
2022-12-18T17:21:46.558Z,65.90
2022-12-18T17:24:12.895Z,67.50
2022-12-18T17:26:39.370Z,65.20
2022-12-18T17:29:05.788Z,69.60
2022-12-18T17:31:33.769Z,71.80
2022-12-18T17:34:02.454Z,62.40
2022-12-18T17:36:31.591Z,74.30
2022-12-18T17:39:00.293Z,70.70
2022-12-18T17:41:27.809Z,62.20
2022-12-18T17:43:59.181Z,71.60
2022-12-18T17:46:26.728Z,70.70
2022-12-18T17:48:57.059Z,65.30
2022-12-18T17:51:23.748Z,63.10
2022-12-18T17:53:50.338Z,62.60
2022-12-18T17:56:19.341Z,61.50
2022-12-18T17:58:47.266Z,63.30
2022-12-18T18:01:15.523Z,60.10
2022-12-18T18:03:44.022Z,59.20
2022-12-18T18:06:11.220Z,61.50
2022-12-18T18:08:37.773Z,56.70
2022-12-18T18:11:24.339Z,67.50
2022-12-18T18:14:00.330Z,59.10
2022-12-18T18:16:34.572Z,65.00
2022-12-18T18:19:03.483Z,53.40
2022-12-18T18:21:30.829Z,62.00
2022-12-18T18:24:04.423Z,57.10
2022-12-18T18:26:32.482Z,66.00
2022-12-18T18:29:00.454Z,69.30
2022-12-18T18:31:30.279Z,62.50
2022-12-18T18:33:57.319Z,62.90
2022-12-18T18:36:24.085Z,61.20
2022-12-18T18:38:51.309Z,67.60
2022-12-18T18:41:18.622Z,63.10
2022-12-18T18:43:45.458Z,66.20
2022-12-18T18:46:14.221Z,66.70
2022-12-18T18:48:43.660Z,70.70
2022-12-18T18:51:14.612Z,65.70
2022-12-18T18:53:49.202Z,64.30
2022-12-18T18:56:45.620Z,70.70
2022-12-18T18:59:04.127Z,58.80
2022-12-18T19:01:30.570Z,60.30
2022-12-18T19:03:57.161Z,68.80
2022-12-18T19:06:25.828Z,56.70
2022-12-18T19:08:54.852Z,65.10
2022-12-18T19:11:41.769Z,73.80
2022-12-18T19:14:10.267Z,66.10
2022-12-18T19:16:37.051Z,72.40
2022-12-18T19:19:03.789Z,73.80
2022-12-18T19:21:31.863Z,80.30
2022-12-18T19:24:01.837Z,67.00
2022-12-18T19:26:28.863Z,70.30
2022-12-18T19:29:03.308Z,73.80
2022-12-18T19:31:35.137Z,67.20
2022-12-18T19:34:04.365Z,72.30
2022-12-18T19:36:34.600Z,76.80
2022-12-18T19:39:02.207Z,78.80
2022-12-18T19:41:31.277Z,72.90
2022-12-18T19:43:58.459Z,79.90
2022-12-18T19:46:24.882Z,77.50
2022-12-18T19:48:51.684Z,82.40
2022-12-18T19:51:23.664Z,72.20
2022-12-18T19:53:56.390Z,74.80
2022-12-18T19:56:26.860Z,72.60
2022-12-18T19:58:53.739Z,71.30
2022-12-18T20:01:22.413Z,76.10
2022-12-18T20:03:52.576Z,80.10
2022-12-18T20:06:26.478Z,69.90
2022-12-18T20:08:54.651Z,66.80
2022-12-18T20:11:26.271Z,77.90
2022-12-18T20:13:52.647Z,81.70
2022-12-18T20:16:19.144Z,77.30
2022-12-18T20:18:45.568Z,85.30
2022-12-18T20:21:14.020Z,69.30
2022-12-18T20:23:41.482Z,74.00
2022-12-18T20:26:08.737Z,76.80
2022-12-18T20:28:35.527Z,80.70
2022-12-18T20:31:05.757Z,77.20
2022-12-18T20:33:32.615Z,72.50
2022-12-18T20:36:01.684Z,74.10
2022-12-18T20:38:29.507Z,93.60
2022-12-18T20:40:58.797Z,83.40
2022-12-18T20:43:25.265Z,72.30
2022-12-18T20:46:00.337Z,82.00
2022-12-18T20:48:27.712Z,73.50
2022-12-18T20:51:07.429Z,78.90
2022-12-18T20:53:34.796Z,85.60
2022-12-18T20:56:06.431Z,87.60
2022-12-18T20:58:33.001Z,77.20
2022-12-18T21:01:03.564Z,82.00
2022-12-18T21:03:30.184Z,80.60
2022-12-18T21:05:56.627Z,79.20
2022-12-18T21:08:23.033Z,83.80
2022-12-18T21:10:49.325Z,83.00
2022-12-18T21:13:16.469Z,81.70
2022-12-18T21:15:43.588Z,79.30
2022-12-18T21:18:10.407Z,88.10
2022-12-18T21:20:36.934Z,88.60
2022-12-18T21:23:14.267Z,70.70
2022-12-18T21:25:42.989Z,86.80
2022-12-18T21:28:09.294Z,80.40
2022-12-18T21:30:35.693Z,76.20
2022-12-18T21:33:02.265Z,86.10
2022-12-18T21:35:28.568Z,77.90
2022-12-18T21:37:58.407Z,79.40
2022-12-18T21:40:24.816Z,77.60
2022-12-18T21:43:10.340Z,77.80
2022-12-18T21:45:40.291Z,85.50
2022-12-18T21:48:06.845Z,91.90
2022-12-18T21:50:33.150Z,93.20
2022-12-18T21:52:59.528Z,91.50
2022-12-18T21:55:25.901Z,90.30
2022-12-18T21:57:54.067Z,105.50
2022-12-18T22:00:20.552Z,75.80
2022-12-18T22:02:48.745Z,89.40
2022-12-18T22:05:35.149Z,88.40
2022-12-18T22:08:01.459Z,86.30
2022-12-18T22:10:27.983Z,78.30
2022-12-18T22:12:55.116Z,84.60
2022-12-18T22:15:22.041Z,82.10
2022-12-18T22:17:52.688Z,84.00
2022-12-18T22:20:27.869Z,87.50
2022-12-18T22:22:55.749Z,79.90
2022-12-18T22:25:22.065Z,78.50
2022-12-18T22:28:07.228Z,86.40
2022-12-18T22:30:34.175Z,86.90
2022-12-18T22:33:01.174Z,91.10
2022-12-18T22:35:27.491Z,81.90
2022-12-18T22:37:54.019Z,82.80
2022-12-18T22:40:27.415Z,87.90
2022-12-18T22:42:54.156Z,89.00
2022-12-18T22:45:20.547Z,94.60
2022-12-18T22:47:46.919Z,86.10
2022-12-18T22:50:14.111Z,87.60
2022-12-18T22:52:40.484Z,85.90
2022-12-18T22:55:07.704Z,78.90
2022-12-18T22:57:34.236Z,78.70
2022-12-18T23:00:01.812Z,89.00
2022-12-18T23:02:28.465Z,94.00
2022-12-18T23:04:55.041Z,90.30
2022-12-18T23:07:21.568Z,84.40
2022-12-18T23:09:50.031Z,79.20
2022-12-18T23:12:19.072Z,91.80
2022-12-18T23:14:47.927Z,87.70
2022-12-18T23:17:14.389Z,78.60
2022-12-18T23:19:47.106Z,85.00
2022-12-18T23:22:16.457Z,93.70
2022-12-18T23:24:42.964Z,85.80
2022-12-18T23:27:11.841Z,88.70
2022-12-18T23:29:39.874Z,91.60
2022-12-18T23:32:07.041Z,89.40
2022-12-18T23:34:33.406Z,88.70
2022-12-18T23:37:00.383Z,81.60
2022-12-18T23:39:30.158Z,87.40
2022-12-18T23:41:57.806Z,76.60
2022-12-18T23:44:24.734Z,76.70
2022-12-18T23:46:51.103Z,94.30
2022-12-18T23:49:17.850Z,82.90
2022-12-18T23:51:44.209Z,91.20
2022-12-18T23:54:10.634Z,89.90
2022-12-18T23:56:37.075Z,93.00
2022-12-18T23:59:03.508Z,72.40
